Arabian — WDC2629 — position and weather

sailwx.info

Track history (hours):
 
Tides and Currents Weather Stations Pressure Air Temp Water Temp Dewpoint Dewpoint Depression Visibility Wind Speed Wind Dir Waves Ship Positions

Arabian

Owner: Kirby Inland Marine LP, Houston, TX. More information available from US FCC via Universal Licensing System and Coast Guard Vessel Documentation Center.

Last reported at 2018-Jun-18 03:12 UTC. Time now 2018-Jun-18 11:42 UTC.
Position N 29°43' W 095°01'.

Length 80 m; draft 2.3 m.

Type: . MMSI: 366995770.

Date/timePositionNaut miles runAvg speedWind from/ knotsBaromVisibWave heightAir tempDewpointWater temp
2018-Jun-18 03:12N 29°43' W 095°01'1 5.4
2018-Jun-18 02:56N 29°42' W 094°60'2 5.2
2018-Jun-18 02:31N 29°40' W 094°58'3 5.1
2018-Jun-18 02:00N 29°37' W 094°58'2 3.8
2018-Jun-18 01:30N 29°37' W 094°60'1 2.8
2018-Jun-18 01:01N 29°37' W 095°01'0 0.0
2018-Jun-18 00:30N 29°37' W 095°01'0 0.0
2018-Jun-18 00:01N 29°37' W 095°01'0 0.0
2018-Jun-17 23:31N 29°37' W 095°01'0 0.0
2018-Jun-17 23:00N 29°37' W 095°01'0 0.0
2018-Jun-17 22:30N 29°37' W 095°01'0 0.0
2018-Jun-17 21:59N 29°37' W 095°01'0 0.0
2018-Jun-17 21:31N 29°37' W 095°01'0 0.0
2018-Jun-17 21:00N 29°37' W 095°01'0 0.0
2018-Jun-17 20:31N 29°37' W 095°01'0 0.0
2018-Jun-17 19:59N 29°37' W 095°01'0 0.0
2018-Jun-17 19:30N 29°37' W 095°01'0 0.0
2018-Jun-17 19:01N 29°37' W 095°01'0 0.0
2018-Jun-17 18:30N 29°37' W 095°01'0 0.0
2018-Jun-17 18:00N 29°37' W 095°01'0 0.0
2018-Jun-17 17:31N 29°37' W 095°01'0 0.0
2018-Jun-17 17:01N 29°37' W 095°01'0 0.0
2018-Jun-17 16:30N 29°37' W 095°01'0 0.0
2018-Jun-17 16:00N 29°37' W 095°01'0 0.0
2018-Jun-17 15:29N 29°37' W 095°01'0 0.0
2018-Jun-17 15:00N 29°37' W 095°01'0 0.0
2018-Jun-17 14:29N 29°37' W 095°01'0 0.0
2018-Jun-17 14:01N 29°37' W 095°01'0 0.0
2018-Jun-17 13:30N 29°37' W 095°01'0 0.0
2018-Jun-17 12:51N 29°37' W 095°01'0 0.0
2018-Jun-17 12:20N 29°37' W 095°01'0 0.0
2018-Jun-17 11:56N 29°37' W 095°01'0 0.0
2018-Jun-17 11:30N 29°37' W 095°01'0 0.0
2018-Jun-17 11:00N 29°37' W 095°01'0 0.0
2018-Jun-17 10:30N 29°37' W 095°01'0 0.0
2018-Jun-17 10:00N 29°37' W 095°01'0 0.1
2018-Jun-17 09:31N 29°37' W 095°01'3 5.0
2018-Jun-17 09:00N 29°37' W 094°58'3 5.6
2018-Jun-17 08:25N 29°40' W 094°59'  
2018-Jun-15 03:29N 29°43' W 095°01'2 4.9
2018-Jun-15 03:00N 29°41' W 094°59'2 5.0
2018-Jun-15 02:31N 29°40' W 094°56'2 0.7
2018-Jun-14 22:45N 29°43' W 094°57'2 0.4
2018-Jun-14 17:16N 29°41' W 094°58'1 3.9
2018-Jun-14 17:00N 29°41' W 094°59'7 0.2
2018-Jun-13 04:36N 29°47' W 095°05'0 0.0
2018-Jun-13 04:07N 29°47' W 095°05'0 0.0
2018-Jun-13 03:59N 29°47' W 095°05'1 0.0
2018-Jun-11 02:54N 29°46' W 095°06'2 0.0
2018-Jun-09 01:42N 29°47' W 095°04'1 0.1
2018-Jun-08 09:47N 29°47' W 095°05'0 0.0
2018-Jun-08 09:20N 29°47' W 095°05'0 0.0
2018-Jun-08 09:00N 29°47' W 095°05'  
Track history (hours):
 
Tides and Currents Weather Stations Pressure Air Temp Water Temp Dewpoint Dewpoint Depression Visibility Wind Speed Wind Dir Waves Ship Positions

Arabian

Owner: Kirby Inland Marine LP, Houston, TX. More information available from US FCC via Universal Licensing System and Coast Guard Vessel Documentation Center.

Last reported at 2018-Jun-18 03:12 UTC. Time now 2018-Jun-18 11:42 UTC.
Position N 29°43' W 095°01'.

Length 80 m; draft 2.3 m.

Type: . MMSI: 366995770.

Date/timePositionNaut miles runAvg speedWind from/ knotsBaromVisibWave heightAir tempDewpointWater temp
2018-Jun-18 03:12N 29°43' W 095°01'1 5.4
2018-Jun-18 02:56N 29°42' W 094°60'2 5.2
2018-Jun-18 02:31N 29°40' W 094°58'3 5.1
2018-Jun-18 02:00N 29°37' W 094°58'2 3.8
2018-Jun-18 01:30N 29°37' W 094°60'1 2.8
2018-Jun-18 01:01N 29°37' W 095°01'0 0.0
2018-Jun-18 00:30N 29°37' W 095°01'0 0.0
2018-Jun-18 00:01N 29°37' W 095°01'0 0.0
2018-Jun-17 23:31N 29°37' W 095°01'0 0.0
2018-Jun-17 23:00N 29°37' W 095°01'0 0.0
2018-Jun-17 22:30N 29°37' W 095°01'0 0.0
2018-Jun-17 21:59N 29°37' W 095°01'0 0.0
2018-Jun-17 21:31N 29°37' W 095°01'0 0.0
2018-Jun-17 21:00N 29°37' W 095°01'0 0.0
2018-Jun-17 20:31N 29°37' W 095°01'0 0.0
2018-Jun-17 19:59N 29°37' W 095°01'0 0.0
2018-Jun-17 19:30N 29°37' W 095°01'0 0.0
2018-Jun-17 19:01N 29°37' W 095°01'0 0.0
2018-Jun-17 18:30N 29°37' W 095°01'0 0.0
2018-Jun-17 18:00N 29°37' W 095°01'0 0.0
2018-Jun-17 17:31N 29°37' W 095°01'0 0.0
2018-Jun-17 17:01N 29°37' W 095°01'0 0.0
2018-Jun-17 16:30N 29°37' W 095°01'0 0.0
2018-Jun-17 16:00N 29°37' W 095°01'0 0.0
2018-Jun-17 15:29N 29°37' W 095°01'0 0.0
2018-Jun-17 15:00N 29°37' W 095°01'0 0.0
2018-Jun-17 14:29N 29°37' W 095°01'0 0.0
2018-Jun-17 14:01N 29°37' W 095°01'0 0.0
2018-Jun-17 13:30N 29°37' W 095°01'0 0.0
2018-Jun-17 12:51N 29°37' W 095°01'0 0.0
2018-Jun-17 12:20N 29°37' W 095°01'0 0.0
2018-Jun-17 11:56N 29°37' W 095°01'0 0.0
2018-Jun-17 11:30N 29°37' W 095°01'0 0.0
2018-Jun-17 11:00N 29°37' W 095°01'0 0.0
2018-Jun-17 10:30N 29°37' W 095°01'0 0.0
2018-Jun-17 10:00N 29°37' W 095°01'0 0.1
2018-Jun-17 09:31N 29°37' W 095°01'3 5.0
2018-Jun-17 09:00N 29°37' W 094°58'3 5.6
2018-Jun-17 08:25N 29°40' W 094°59'  
2018-Jun-15 03:29N 29°43' W 095°01'2 4.9
2018-Jun-15 03:00N 29°41' W 094°59'2 5.0
2018-Jun-15 02:31N 29°40' W 094°56'2 0.7
2018-Jun-14 22:45N 29°43' W 094°57'2 0.4
2018-Jun-14 17:16N 29°41' W 094°58'1 3.9
2018-Jun-14 17:00N 29°41' W 094°59'7 0.2
2018-Jun-13 04:36N 29°47' W 095°05'0 0.0
2018-Jun-13 04:07N 29°47' W 095°05'0 0.0
2018-Jun-13 03:59N 29°47' W 095°05'1 0.0
2018-Jun-11 02:54N 29°46' W 095°06'2 0.0
2018-Jun-09 01:42N 29°47' W 095°04'1 0.1
2018-Jun-08 09:47N 29°47' W 095°05'0 0.0
2018-Jun-08 09:20N 29°47' W 095°05'0 0.0
2018-Jun-08 09:00N 29°47' W 095°05'  

Dump ship's entire track history